Time;durP1;ratioP1;P1;durP2;ratioP2;P2;SDS_P1;SDS_P2;PMS_P1;PMS_P2;Temp;Humidity;BMP_temperature;BMP_pressure;BME280_temperature;BME280_humidity;BME280_pressure;Samples;Min_cycle;Max_cycle;Signal;HPM_P1;HPM_P2
2023/06/30 00:02:19;;;;;;;;;1.25;1.25;;;;;;;;5075324;28;45251;-67
2023/06/30 00:04:44;;;;;;;;;2.75;1.50;;;;;;;;5075707;28;45390;-67
2023/06/30 00:07:10;;;;;;;;;8.50;6.00;;;;;;;;5075685;28;45352;-67
2023/06/30 00:09:35;;;;;;;;;2.00;1.00;;;;;;;;5075667;27;45316;-67
2023/06/30 00:12:00;;;;;;;;;2.00;1.00;;;;;;;;5037263;28;45441;-66
2023/06/30 00:14:25;;;;;;;;;11.50;9.25;;;;;;;;5055584;28;45943;-67
2023/06/30 00:16:51;;;;;;;;;6.00;6.00;;;;;;;;5061417;28;45467;-67
2023/06/30 00:19:16;;;;;;;;;4.75;3.25;;;;;;;;5075339;28;45315;-67
2023/06/30 00:21:43;;;;;;;;;5.00;5.00;;;;;;;;5057220;28;45521;-67
2023/06/30 00:24:10;;;;;;;;;5.00;4.25;;;;;;;;5075185;28;46905;-67
2023/06/30 00:26:35;;;;;;;;;3.00;3.00;;;;;;;;5074718;28;45470;-67
2023/06/30 00:29:01;;;;;;;;;2.50;2.50;;;;;;;;5075041;28;45446;-67
2023/06/30 00:31:26;;;;;;;;;2.00;2.00;;;;;;;;5071832;28;45731;-68
2023/06/30 00:33:52;;;;;;;;;2.50;1.00;;;;;;;;5074674;28;45880;-67
2023/06/30 00:36:17;;;;;;;;;1.50;1.50;;;;;;;;5074613;28;45482;-67
2023/06/30 00:38:42;;;;;;;;;1.00;1.00;;;;;;;;5075908;27;45489;-68
2023/06/30 00:41:07;;;;;;;;;1.25;1.25;;;;;;;;5072736;28;45869;-67
2023/06/30 00:43:33;;;;;;;;;2.00;2.00;;;;;;;;5073528;28;46577;-68
2023/06/30 00:45:58;;;;;;;;;2.50;2.50;;;;;;;;5073889;28;45640;-68
2023/06/30 00:48:23;;;;;;;;;5.50;4.00;;;;;;;;5074768;27;45429;-68
2023/06/30 00:50:49;;;;;;;;;2.50;1.50;;;;;;;;5075269;28;45421;-68
2023/06/30 00:53:15;;;;;;;;;3.00;3.00;;;;;;;;5074601;28;45365;-68
2023/06/30 00:55:41;;;;;;;;;2.00;2.00;;;;;;;;5056949;28;45911;-68
2023/06/30 00:58:06;;;;;;;;;1.50;1.50;;;;;;;;5075182;28;45409;-69
2023/06/30 01:00:31;;;;;;;;;3.25;2.00;;;;;;;;5075007;28;45523;-68
2023/06/30 01:03:02;;;;;;;;;3.00;3.00;;;;;;;;5074704;28;45626;-68
2023/06/30 01:05:31;;;;;;;;;3.00;3.00;;;;;;;;5074199;28;45367;-68
2023/06/30 01:08:05;;;;;;;;;4.50;1.75;;;;;;;;5074257;28;45423;-68
2023/06/30 01:10:31;;;;;;;;;2.75;2.75;;;;;;;;5056743;28;45367;-73
2023/06/30 01:12:57;;;;;;;;;3.25;2.50;;;;;;;;5074022;28;45639;-73
2023/06/30 01:15:23;;;;;;;;;3.25;2.25;;;;;;;;5057594;28;45915;-73
2023/06/30 01:17:51;;;;;;;;;3.00;3.00;;;;;;;;5078383;28;45458;-73
2023/06/30 01:20:17;;;;;;;;;3.00;3.00;;;;;;;;5077944;28;45495;-73
2023/06/30 01:22:50;;;;;;;;;3.50;2.00;;;;;;;;5078165;27;45540;-73
2023/06/30 01:25:21;;;;;;;;;4.00;4.00;;;;;;;;5078053;28;45289;-72
2023/06/30 01:27:46;;;;;;;;;1.50;1.50;;;;;;;;5078406;28;45647;-73
2023/06/30 01:30:13;;;;;;;;;3.00;3.00;;;;;;;;5077830;28;45421;-73
2023/06/30 01:32:39;;;;;;;;;3.75;3.75;;;;;;;;5077939;27;46337;-73
2023/06/30 01:35:04;;;;;;;;;4.75;4.75;;;;;;;;5077680;28;45475;-73
2023/06/30 01:37:29;;;;;;;;;5.25;5.25;;;;;;;;5078080;28;45578;-73
2023/06/30 01:39:55;;;;;;;;;5.25;5.25;;;;;;;;5077502;28;45400;-72
2023/06/30 01:42:20;;;;;;;;;7.00;5.00;;;;;;;;5077867;28;46186;-73
2023/06/30 01:44:46;;;;;;;;;5.25;5.25;;;;;;;;5059726;28;45441;-72
2023/06/30 01:47:11;;;;;;;;;5.00;5.00;;;;;;;;5078040;28;45241;-73
2023/06/30 01:49:37;;;;;;;;;4.00;4.00;;;;;;;;5059671;28;45544;-73
2023/06/30 01:52:02;;;;;;;;;10.00;10.00;;;;;;;;5077887;27;45924;-73
2023/06/30 01:54:28;;;;;;;;;7.50;7.50;;;;;;;;5077911;28;45359;-73
2023/06/30 01:56:53;;;;;;;;;7.50;5.25;;;;;;;;5078008;27;45380;-73
2023/06/30 01:59:18;;;;;;;;;5.75;5.75;;;;;;;;5077849;28;45518;-73
2023/06/30 02:01:43;;;;;;;;;9.50;6.00;;;;;;;;5077680;28;46839;-73
2023/06/30 02:04:11;;;;;;;;;5.75;5.75;;;;;;;;5077380;27;45308;-73
2023/06/30 02:06:36;;;;;;;;;7.50;4.50;;;;;;;;5077977;28;45320;-73
2023/06/30 02:09:02;;;;;;;;;5.00;5.00;;;;;;;;5076029;27;45280;-73
2023/06/30 02:11:27;;;;;;;;;6.00;6.00;;;;;;;;5076838;28;46772;-73
2023/06/30 02:13:52;;;;;;;;;8.25;6.50;;;;;;;;5077481;27;45327;-72
2023/06/30 02:16:18;;;;;;;;;5.00;5.00;;;;;;;;5077602;28;45322;-72
2023/06/30 02:18:43;;;;;;;;;3.00;3.00;;;;;;;;5077444;27;45439;-71
2023/06/30 02:21:08;;;;;;;;;4.25;4.00;;;;;;;;5077269;28;45581;-72
2023/06/30 02:23:33;;;;;;;;;5.50;5.00;;;;;;;;5077831;28;45394;-73
2023/06/30 02:25:59;;;;;;;;;7.00;5.50;;;;;;;;5042483;27;45383;-73
2023/06/30 02:28:24;;;;;;;;;7.75;4.50;;;;;;;;5052793;27;45677;-73
2023/06/30 02:30:49;;;;;;;;;3.50;3.50;;;;;;;;5057274;28;47043;-72
2023/06/30 02:33:14;;;;;;;;;4.25;4.25;;;;;;;;5056711;28;45323;-72
2023/06/30 02:35:39;;;;;;;;;4.50;3.50;;;;;;;;5057128;28;45351;-73
2023/06/30 02:38:06;;;;;;;;;4.75;4.75;;;;;;;;5056724;28;45563;-73
2023/06/30 02:40:31;;;;;;;;;6.25;6.25;;;;;;;;5038516;28;47513;-73
2023/06/30 02:42:56;;;;;;;;;4.50;3.50;;;;;;;;5056696;28;45609;-72
2023/06/30 02:45:22;;;;;;;;;4.25;3.50;;;;;;;;5056828;28;45633;-73
2023/06/30 02:47:47;;;;;;;;;4.00;3.00;;;;;;;;5056677;28;45410;-72
2023/06/30 02:50:12;;;;;;;;;2.00;2.00;;;;;;;;5064890;27;46435;-73
2023/06/30 02:52:37;;;;;;;;;1.00;1.00;;;;;;;;5096926;27;45631;-73
2023/06/30 02:55:02;;;;;;;;;0.00;0.00;;;;;;;;5097085;27;45388;-72
2023/06/30 02:57:28;;;;;;;;;2.00;2.00;;;;;;;;5097497;27;45367;-73
2023/06/30 02:59:53;;;;;;;;;2.00;2.00;;;;;;;;5097155;27;45401;-73
2023/06/30 03:02:18;;;;;;;;;1.00;1.00;;;;;;;;5078482;27;45324;-73
2023/06/30 03:04:43;;;;;;;;;2.50;2.50;;;;;;;;5097076;27;45366;-73
2023/06/30 03:07:08;;;;;;;;;1.25;1.25;;;;;;;;5097055;27;45408;-74
2023/06/30 03:09:34;;;;;;;;;1.25;1.25;;;;;;;;5096955;27;45684;-73
2023/06/30 03:11:59;;;;;;;;;2.50;2.00;;;;;;;;5090533;27;45374;-73
2023/06/30 03:14:24;;;;;;;;;3.00;3.00;;;;;;;;5076842;28;45525;-73
2023/06/30 03:16:49;;;;;;;;;1.00;1.00;;;;;;;;5076290;27;45499;-73
2023/06/30 03:19:15;;;;;;;;;3.00;2.00;;;;;;;;5075988;28;47021;-73
2023/06/30 03:21:40;;;;;;;;;2.75;1.75;;;;;;;;5076406;28;45349;-73
2023/06/30 03:24:05;;;;;;;;;2.00;2.00;;;;;;;;5076609;28;45429;-73
2023/06/30 03:26:30;;;;;;;;;4.00;3.00;;;;;;;;5076636;28;45410;-73
2023/06/30 03:28:55;;;;;;;;;3.00;2.00;;;;;;;;5076165;28;46296;-73
2023/06/30 03:31:21;;;;;;;;;2.75;2.25;;;;;;;;5076046;28;45462;-73
2023/06/30 03:33:46;;;;;;;;;4.00;3.00;;;;;;;;5058209;28;45706;-73
2023/06/30 03:36:12;;;;;;;;;2.25;2.25;;;;;;;;5076471;28;45426;-72
2023/06/30 03:38:37;;;;;;;;;5.75;4.00;;;;;;;;5075387;27;47189;-72
2023/06/30 03:41:03;;;;;;;;;2.50;2.50;;;;;;;;5076196;28;45513;-73
2023/06/30 03:43:28;;;;;;;;;2.75;2.75;;;;;;;;5076241;28;45490;-73
2023/06/30 03:45:53;;;;;;;;;4.50;3.00;;;;;;;;5075959;28;45339;-73
2023/06/30 03:48:20;;;;;;;;;4.50;3.00;;;;;;;;5075980;28;45667;-73
2023/06/30 03:50:45;;;;;;;;;4.50;2.50;;;;;;;;5075987;28;45460;-72
2023/06/30 03:53:10;;;;;;;;;5.50;4.00;;;;;;;;5075794;28;45568;-73
2023/06/30 03:55:36;;;;;;;;;3.50;3.50;;;;;;;;5075926;28;45476;-73
2023/06/30 03:58:01;;;;;;;;;4.00;3.00;;;;;;;;5075956;28;46196;-73
2023/06/30 04:00:28;;;;;;;;;3.25;3.25;;;;;;;;5075914;28;45371;-73
2023/06/30 04:02:53;;;;;;;;;3.00;3.00;;;;;;;;5076155;28;45271;-73
2023/06/30 04:05:18;;;;;;;;;3.00;3.00;;;;;;;;5075752;28;45253;-73
2023/06/30 04:07:43;;;;;;;;;5.00;3.50;;;;;;;;5075819;28;45435;-73
2023/06/30 04:10:08;;;;;;;;;2.50;2.50;;;;;;;;5073321;27;45600;-73
2023/06/30 04:12:34;;;;;;;;;3.75;3.75;;;;;;;;5066638;28;45297;-73
2023/06/30 04:15:00;;;;;;;;;3.25;3.00;;;;;;;;5074926;28;45606;-73
2023/06/30 04:17:25;;;;;;;;;4.00;4.00;;;;;;;;5075521;28;45304;-73
2023/06/30 04:19:50;;;;;;;;;2.75;2.75;;;;;;;;5075311;28;45383;-72
2023/06/30 04:22:15;;;;;;;;;4.75;4.75;;;;;;;;5075819;28;45248;-72
2023/06/30 04:24:41;;;;;;;;;5.50;4.00;;;;;;;;5075588;28;45231;-73
2023/06/30 04:27:06;;;;;;;;;5.25;5.00;;;;;;;;5075475;28;45412;-72
2023/06/30 04:29:31;;;;;;;;;8.25;5.75;;;;;;;;5075229;28;45341;-72
2023/06/30 04:31:56;;;;;;;;;5.25;4.25;;;;;;;;5075738;28;45300;-73
2023/06/30 04:34:21;;;;;;;;;8.00;5.50;;;;;;;;5075602;28;45406;-73
2023/06/30 04:36:49;;;;;;;;;4.75;3.25;;;;;;;;5075452;28;45329;-73
2023/06/30 04:39:14;;;;;;;;;6.00;6.00;;;;;;;;5057453;28;45421;-73
2023/06/30 04:41:39;;;;;;;;;3.00;2.00;;;;;;;;5075628;28;45404;-73
2023/06/30 04:44:04;;;;;;;;;5.25;3.00;;;;;;;;5075264;28;45350;-72
2023/06/30 04:46:30;;;;;;;;;2.00;2.00;;;;;;;;5075190;27;46100;-73
2023/06/30 04:48:55;;;;;;;;;1.00;1.00;;;;;;;;5076295;27;45288;-72
2023/06/30 04:51:21;;;;;;;;;2.75;2.75;;;;;;;;5060939;28;45345;-73
2023/06/30 04:53:46;;;;;;;;;2.25;2.25;;;;;;;;5079013;28;45359;-73
2023/06/30 04:56:11;;;;;;;;;1.75;0.50;;;;;;;;5078521;28;46499;-73
2023/06/30 04:58:36;;;;;;;;;1.75;1.75;;;;;;;;5078522;28;45391;-73
2023/06/30 05:01:04;;;;;;;;;1.50;1.50;;;;;;;;5079087;28;45726;-73
2023/06/30 05:03:29;;;;;;;;;2.00;2.00;;;;;;;;5078808;28;45383;-73
2023/06/30 05:05:56;;;;;;;;;2.00;2.00;;;;;;;;5078552;28;45496;-73
2023/06/30 05:08:21;;;;;;;;;1.00;1.00;;;;;;;;5060461;28;45884;-72
2023/06/30 05:10:47;;;;;;;;;3.25;2.25;;;;;;;;5060628;28;45377;-73
2023/06/30 05:13:12;;;;;;;;;1.25;1.25;;;;;;;;5059832;28;45361;-73
2023/06/30 05:15:37;;;;;;;;;1.00;1.00;;;;;;;;5078338;28;46914;-72
2023/06/30 05:18:02;;;;;;;;;3.00;1.75;;;;;;;;5078493;27;45303;-74
2023/06/30 05:20:27;;;;;;;;;1.00;0.25;;;;;;;;5078351;28;45343;-75
2023/06/30 05:22:53;;;;;;;;;2.25;2.25;;;;;;;;5078355;27;45475;-75
2023/06/30 05:25:18;;;;;;;;;1.75;1.75;;;;;;;;5078226;27;45423;-76
2023/06/30 05:27:43;;;;;;;;;1.00;1.00;;;;;;;;5078267;28;45581;-75
2023/06/30 05:30:08;;;;;;;;;2.00;2.00;;;;;;;;5078400;28;45369;-75
2023/06/30 05:32:35;;;;;;;;;4.00;2.50;;;;;;;;5060008;28;45364;-75
2023/06/30 05:35:00;;;;;;;;;2.25;2.25;;;;;;;;5078095;28;45493;-76
2023/06/30 05:37:25;;;;;;;;;5.00;3.00;;;;;;;;5077811;27;45332;-76
2023/06/30 05:39:50;;;;;;;;;3.00;2.25;;;;;;;;5078383;28;45421;-76
2023/06/30 05:42:15;;;;;;;;;3.75;3.75;;;;;;;;5077882;28;45370;-76
2023/06/30 05:44:40;;;;;;;;;6.50;2.75;;;;;;;;5059492;28;48498;-76
2023/06/30 05:47:06;;;;;;;;;1.25;1.25;;;;;;;;5078121;28;45387;-76
2023/06/30 05:49:31;;;;;;;;;2.00;2.00;;;;;;;;5078188;28;45489;-76
2023/06/30 05:51:57;;;;;;;;;2.75;2.00;;;;;;;;5078141;27;45532;-77
2023/06/30 05:54:22;;;;;;;;;2.25;1.25;;;;;;;;5077826;28;47000;-76
2023/06/30 05:56:47;;;;;;;;;2.00;2.00;;;;;;;;5077564;28;45270;-76
2023/06/30 05:59:13;;;;;;;;;2.00;2.00;;;;;;;;5077955;28;45331;-76
2023/06/30 06:01:38;;;;;;;;;1.50;1.25;;;;;;;;5077091;28;45474;-76
2023/06/30 06:04:04;;;;;;;;;3.00;3.00;;;;;;;;5077642;28;45323;-76
2023/06/30 06:06:29;;;;;;;;;2.00;2.00;;;;;;;;5077646;28;45475;-72
2023/06/30 06:08:54;;;;;;;;;2.75;2.75;;;;;;;;5077438;28;45500;-74
2023/06/30 06:11:19;;;;;;;;;3.25;3.25;;;;;;;;5077386;28;45287;-74
2023/06/30 06:13:45;;;;;;;;;1.75;1.75;;;;;;;;5077235;28;45454;-74
2023/06/30 06:16:10;;;;;;;;;2.00;2.00;;;;;;;;5077966;27;45316;-74
2023/06/30 06:18:35;;;;;;;;;2.75;1.25;;;;;;;;5077882;28;45347;-75
2023/06/30 06:21:04;;;;;;;;;2.00;2.00;;;;;;;;5059313;28;45562;-74
2023/06/30 06:23:29;;;;;;;;;2.00;2.00;;;;;;;;5077103;28;46218;-75
2023/06/30 06:25:54;;;;;;;;;3.00;3.00;;;;;;;;5076939;28;45460;-73
2023/06/30 06:28:20;;;;;;;;;2.50;2.50;;;;;;;;5077361;28;45265;-74
2023/06/30 06:30:45;;;;;;;;;2.50;2.50;;;;;;;;5077426;27;45410;-74
2023/06/30 06:33:10;;;;;;;;;4.75;2.75;;;;;;;;5076912;27;46114;-74
2023/06/30 06:35:36;;;;;;;;;4.00;4.00;;;;;;;;5077106;28;45362;-74
2023/06/30 06:38:01;;;;;;;;;5.00;5.00;;;;;;;;5058997;28;45864;-73
2023/06/30 06:40:28;;;;;;;;;4.00;4.00;;;;;;;;5077196;27;45447;-74
2023/06/30 06:42:54;;;;;;;;;5.50;4.50;;;;;;;;5077135;28;46060;-74
2023/06/30 06:45:20;;;;;;;;;4.25;4.25;;;;;;;;5076840;28;45448;-74
2023/06/30 06:48:03;;;;;;;;;4.75;4.50;;;;;;;;5077177;27;45448;-73
2023/06/30 06:50:28;;;;;;;;;5.75;5.75;;;;;;;;5076909;28;45501;-74
2023/06/30 06:52:54;;;;;;;;;5.00;4.50;;;;;;;;5076755;27;46352;-74
2023/06/30 06:55:19;;;;;;;;;4.75;3.50;;;;;;;;5076854;27;45397;-73
2023/06/30 06:57:48;;;;;;;;;5.25;5.25;;;;;;;;5076916;28;45375;-73
2023/06/30 07:00:13;;;;;;;;;7.75;7.75;;;;;;;;5076948;28;45384;-73
2023/06/30 07:02:39;;;;;;;;;5.75;5.75;;;;;;;;5076123;27;46517;-74
2023/06/30 07:05:04;;;;;;;;;4.25;4.00;;;;;;;;5076670;28;45405;-74
2023/06/30 07:07:29;;;;;;;;;7.50;6.00;;;;;;;;5076750;28;45465;-74
2023/06/30 07:09:54;;;;;;;;;5.00;5.00;;;;;;;;5076390;28;45442;-74
2023/06/30 07:12:19;;;;;;;;;5.00;5.00;;;;;;;;5075074;28;46150;-74
2023/06/30 07:14:45;;;;;;;;;15.00;12.25;;;;;;;;5076209;28;45580;-73
2023/06/30 07:17:10;;;;;;;;;8.25;7.25;;;;;;;;5076933;28;45440;-73
2023/06/30 07:19:35;;;;;;;;;7.00;5.00;;;;;;;;5076444;28;45500;-74
2023/06/30 07:22:00;;;;;;;;;7.50;6.75;;;;;;;;5057837;28;45438;-73
2023/06/30 07:24:25;;;;;;;;;8.75;8.75;;;;;;;;5057809;28;45732;-74
2023/06/30 07:26:51;;;;;;;;;8.25;6.50;;;;;;;;5076376;28;45430;-74
2023/06/30 07:29:16;;;;;;;;;9.50;9.00;;;;;;;;5058264;28;45450;-74
2023/06/30 07:31:41;;;;;;;;;6.50;6.50;;;;;;;;5076017;28;47321;-74
2023/06/30 07:34:07;;;;;;;;;7.00;5.50;;;;;;;;5076139;28;45474;-74
2023/06/30 07:36:32;;;;;;;;;7.00;6.00;;;;;;;;5076311;28;45391;-74
2023/06/30 07:38:57;;;;;;;;;8.75;7.00;;;;;;;;5076399;28;45616;-74
2023/06/30 07:41:22;;;;;;;;;4.25;4.25;;;;;;;;5076101;28;45453;-74
2023/06/30 07:43:48;;;;;;;;;8.50;8.50;;;;;;;;5076187;28;45321;-74
2023/06/30 07:46:14;;;;;;;;;6.50;5.00;;;;;;;;5076137;28;45319;-74
2023/06/30 07:48:39;;;;;;;;;6.00;6.00;;;;;;;;5058385;28;45380;-74
2023/06/30 07:51:04;;;;;;;;;6.50;6.50;;;;;;;;5075774;28;45466;-74
2023/06/30 07:53:29;;;;;;;;;6.00;5.50;;;;;;;;5075982;28;45421;-74
2023/06/30 07:55:54;;;;;;;;;5.50;5.50;;;;;;;;5057556;28;45483;-73
2023/06/30 07:58:20;;;;;;;;;5.00;3.50;;;;;;;;5076075;28;45459;-73
2023/06/30 08:00:45;;;;;;;;;5.00;5.00;;;;;;;;5075824;28;45342;-74
2023/06/30 08:03:10;;;;;;;;;2.00;2.00;;;;;;;;5075592;28;45371;-74
2023/06/30 08:05:35;;;;;;;;;5.00;3.75;;;;;;;;5076235;28;45337;-74
2023/06/30 08:08:01;;;;;;;;;6.00;6.00;;;;;;;;5075537;27;45322;-73
2023/06/30 08:10:26;;;;;;;;;5.25;4.00;;;;;;;;5075833;28;47023;-73
2023/06/30 08:12:51;;;;;;;;;6.00;6.00;;;;;;;;5075692;28;45316;-73
2023/06/30 08:15:17;;;;;;;;;5.00;2.75;;;;;;;;5075648;27;45390;-74
2023/06/30 08:17:42;;;;;;;;;3.00;2.75;;;;;;;;5075677;28;45604;-73
2023/06/30 08:20:08;;;;;;;;;3.00;3.00;;;;;;;;5057221;28;47734;-74
2023/06/30 08:22:33;;;;;;;;;5.25;5.25;;;;;;;;5075098;28;45438;-74
2023/06/30 08:24:58;;;;;;;;;5.00;3.00;;;;;;;;5075357;28;45391;-73
2023/06/30 08:27:23;;;;;;;;;5.75;4.00;;;;;;;;5057353;28;45381;-74
2023/06/30 08:29:49;;;;;;;;;1.75;1.75;;;;;;;;5075475;28;47060;-74
2023/06/30 08:32:14;;;;;;;;;3.00;3.00;;;;;;;;5075457;28;45501;-74
2023/06/30 08:34:39;;;;;;;;;3.00;3.00;;;;;;;;5075549;28;45319;-74
2023/06/30 08:37:04;;;;;;;;;2.25;2.25;;;;;;;;5075400;28;45382;-74
2023/06/30 08:39:31;;;;;;;;;2.25;2.00;;;;;;;;5057192;28;47265;-73
2023/06/30 08:41:58;;;;;;;;;3.00;3.00;;;;;;;;5075455;28;45392;-74
2023/06/30 08:44:25;;;;;;;;;4.25;3.25;;;;;;;;5075278;28;45318;-74
2023/06/30 08:46:51;;;;;;;;;3.25;2.00;;;;;;;;5057165;28;45509;-74
2023/06/30 08:49:16;;;;;;;;;5.00;3.75;;;;;;;;5074718;27;45477;-74
2023/06/30 08:51:42;;;;;;;;;3.00;3.00;;;;;;;;5075037;28;45438;-74
2023/06/30 08:54:08;;;;;;;;;4.75;3.50;;;;;;;;5075120;28;45473;-74
2023/06/30 08:56:35;;;;;;;;;3.75;3.00;;;;;;;;5075138;28;45444;-75
2023/06/30 08:59:01;;;;;;;;;3.00;3.00;;;;;;;;5074961;28;47562;-74
2023/06/30 09:01:27;;;;;;;;;1.25;1.25;;;;;;;;5074973;28;45362;-73
2023/06/30 09:03:52;;;;;;;;;2.00;2.00;;;;;;;;5075336;28;45473;-74
2023/06/30 09:06:18;;;;;;;;;2.00;2.00;;;;;;;;5075110;28;45363;-74
2023/06/30 09:08:51;;;;;;;;;2.50;2.00;;;;;;;;5074697;28;46992;-73
2023/06/30 09:11:17;;;;;;;;;2.50;2.50;;;;;;;;5074974;28;45927;-74
2023/06/30 09:13:42;;;;;;;;;2.75;2.75;;;;;;;;5074868;28;45408;-74
2023/06/30 09:16:10;;;;;;;;;1.50;1.50;;;;;;;;5075016;28;45463;-74
2023/06/30 09:18:35;;;;;;;;;3.00;3.00;;;;;;;;5074550;28;47031;-75
2023/06/30 09:21:03;;;;;;;;;4.25;4.25;;;;;;;;5074619;28;45443;-73
2023/06/30 09:23:28;;;;;;;;;3.50;3.50;;;;;;;;5074774;28;45372;-74
2023/06/30 09:25:53;;;;;;;;;3.25;3.25;;;;;;;;5074936;28;45476;-74
2023/06/30 09:28:18;;;;;;;;;2.00;2.00;;;;;;;;5074727;28;45618;-74
2023/06/30 09:30:45;;;;;;;;;4.75;3.00;;;;;;;;5074921;28;45426;-74
2023/06/30 09:33:12;;;;;;;;;3.00;3.00;;;;;;;;5074719;27;45422;-74
2023/06/30 09:35:38;;;;;;;;;3.00;3.00;;;;;;;;5075479;28;45412;-75
2023/06/30 09:38:07;;;;;;;;;2.50;2.50;;;;;;;;5078081;28;46809;-74
2023/06/30 09:40:32;;;;;;;;;3.50;3.50;;;;;;;;5059959;27;45889;-74
2023/06/30 09:42:58;;;;;;;;;2.00;2.00;;;;;;;;5078413;27;45450;-74
2023/06/30 09:45:23;;;;;;;;;2.75;2.75;;;;;;;;5078262;28;45419;-74
2023/06/30 09:47:54;;;;;;;;;2.00;2.00;;;;;;;;5077926;28;46327;-74
2023/06/30 09:50:27;;;;;;;;;1.75;1.75;;;;;;;;5077909;28;45383;-74
2023/06/30 09:52:52;;;;;;;;;1.00;1.00;;;;;;;;5078123;28;45390;-74
2023/06/30 09:55:17;;;;;;;;;1.50;1.00;;;;;;;;5078002;28;45497;-75
2023/06/30 09:57:43;;;;;;;;;2.00;2.00;;;;;;;;5059798;28;45494;-74
2023/06/30 10:00:13;;;;;;;;;2.50;1.50;;;;;;;;5078064;28;45354;-75
2023/06/30 10:02:39;;;;;;;;;0.25;0.25;;;;;;;;5077896;27;45381;-75
2023/06/30 10:05:05;;;;;;;;;2.75;1.75;;;;;;;;5077892;28;45326;-74
2023/06/30 10:07:31;;;;;;;;;2.25;1.75;;;;;;;;5077371;27;46435;-75
2023/06/30 10:09:57;;;;;;;;;1.00;1.00;;;;;;;;5077399;28;45380;-75
2023/06/30 10:12:23;;;;;;;;;1.50;1.50;;;;;;;;5077671;27;45329;-71
2023/06/30 10:14:51;;;;;;;;;1.25;1.25;;;;;;;;5077348;28;45367;-72
2023/06/30 10:17:16;;;;;;;;;1.00;1.00;;;;;;;;5077104;28;46316;-72
2023/06/30 10:19:42;;;;;;;;;1.25;1.25;;;;;;;;5077509;28;45411;-71
2023/06/30 10:22:07;;;;;;;;;1.50;1.50;;;;;;;;5077388;28;45536;-72
2023/06/30 10:24:41;;;;;;;;;2.50;2.00;;;;;;;;5059172;28;45617;-73
2023/06/30 10:27:08;;;;;;;;;2.00;1.25;;;;;;;;5077365;28;47023;-73
2023/06/30 10:29:34;;;;;;;;;1.75;1.75;;;;;;;;5077185;28;45382;-73
2023/06/30 10:31:59;;;;;;;;;1.50;1.50;;;;;;;;5077032;28;45319;-73
2023/06/30 10:34:25;;;;;;;;;2.75;2.75;;;;;;;;5077188;28;45320;-73
2023/06/30 10:36:50;;;;;;;;;1.50;1.50;;;;;;;;5077068;28;45504;-73
2023/06/30 10:39:16;;;;;;;;;2.00;1.00;;;;;;;;5077129;27;45383;-72
2023/06/30 10:41:48;;;;;;;;;2.00;2.00;;;;;;;;5077293;28;45370;-73
2023/06/30 10:44:13;;;;;;;;;2.00;2.00;;;;;;;;5077028;28;45422;-73
2023/06/30 10:46:59;;;;;;;;;1.25;1.25;;;;;;;;5076497;28;45711;-73
2023/06/30 10:49:34;;;;;;;;;1.50;1.50;;;;;;;;5075875;27;45303;-72
2023/06/30 10:52:03;;;;;;;;;3.00;2.00;;;;;;;;5059045;28;45307;-73
2023/06/30 10:54:30;;;;;;;;;2.50;2.00;;;;;;;;5076663;28;45401;-73
2023/06/30 10:57:05;;;;;;;;;1.00;1.00;;;;;;;;5076478;28;45625;-73
2023/06/30 10:59:41;;;;;;;;;1.00;0.75;;;;;;;;5076814;27;45307;-74
2023/06/30 11:02:14;;;;;;;;;1.50;1.50;;;;;;;;5076686;28;45359;-73
2023/06/30 11:04:40;;;;;;;;;2.75;1.00;;;;;;;;5076881;28;45260;-73
2023/06/30 11:07:07;;;;;;;;;1.50;1.50;;;;;;;;5076773;28;46189;-72
2023/06/30 11:09:47;;;;;;;;;1.00;1.00;;;;;;;;5076562;28;45268;-74
2023/06/30 11:12:15;;;;;;;;;1.00;1.00;;;;;;;;5076592;27;45387;-74
2023/06/30 11:14:56;;;;;;;;;1.00;1.00;;;;;;;;5058010;27;45339;-72
2023/06/30 11:17:22;;;;;;;;;1.00;1.00;;;;;;;;5076549;27;46221;-73
2023/06/30 11:19:57;;;;;;;;;2.00;1.75;;;;;;;;5057993;28;45450;-73
2023/06/30 11:22:22;;;;;;;;;1.00;1.00;;;;;;;;5076593;28;45421;-73
2023/06/30 11:24:47;;;;;;;;;1.75;1.25;;;;;;;;5076466;28;45394;-73
2023/06/30 11:27:14;;;;;;;;;1.00;1.00;;;;;;;;5076394;28;46084;-73
2023/06/30 11:29:39;;;;;;;;;1.00;1.00;;;;;;;;5058009;28;45347;-73
2023/06/30 11:32:05;;;;;;;;;1.50;1.00;;;;;;;;5076351;28;45561;-73
2023/06/30 11:34:30;;;;;;;;;1.00;1.00;;;;;;;;5058003;28;45564;-72
2023/06/30 11:36:56;;;;;;;;;0.00;0.00;;;;;;;;5076165;28;46197;-73
2023/06/30 11:39:21;;;;;;;;;3.50;2.00;;;;;;;;5076145;28;45625;-72
2023/06/30 11:41:46;;;;;;;;;1.00;1.00;;;;;;;;5076388;27;45364;-72
2023/06/30 11:44:12;;;;;;;;;1.75;1.75;;;;;;;;5075805;28;45501;-73
2023/06/30 11:46:37;;;;;;;;;1.25;1.25;;;;;;;;5076168;28;47101;-72
2023/06/30 11:49:02;;;;;;;;;1.00;1.00;;;;;;;;5057791;28;45454;-74
2023/06/30 11:51:30;;;;;;;;;1.00;1.00;;;;;;;;5076111;28;45382;-74
2023/06/30 11:53:55;;;;;;;;;0.50;0.50;;;;;;;;5075840;28;45553;-71
2023/06/30 11:56:20;;;;;;;;;1.00;1.00;;;;;;;;5075613;27;46592;-72
2023/06/30 11:58:49;;;;;;;;;0.00;0.00;;;;;;;;5074787;28;45319;-72
2023/06/30 12:01:14;;;;;;;;;1.75;0.00;;;;;;;;5076059;27;45251;-72
2023/06/30 12:03:39;;;;;;;;;1.00;1.00;;;;;;;;5076021;28;45327;-72
2023/06/30 12:06:05;;;;;;;;;1.25;1.25;;;;;;;;5072322;28;46571;-73
2023/06/30 12:08:34;;;;;;;;;0.50;0.50;;;;;;;;5075369;28;45319;-72
2023/06/30 12:11:02;;;;;;;;;0.25;0.25;;;;;;;;5056633;28;45323;-73
2023/06/30 12:13:28;;;;;;;;;0.75;0.75;;;;;;;;5075047;28;45458;-73
2023/06/30 12:15:56;;;;;;;;;2.00;1.00;;;;;;;;5075234;28;46055;-72
2023/06/30 12:18:35;;;;;;;;;1.00;1.00;;;;;;;;5075007;28;45339;-72
2023/06/30 12:21:00;;;;;;;;;0.00;0.00;;;;;;;;5075236;28;45460;-73
2023/06/30 12:23:29;;;;;;;;;1.00;1.00;;;;;;;;5075478;28;45470;-72
2023/06/30 12:25:56;;;;;;;;;0.50;0.00;;;;;;;;5069225;27;47275;-73
2023/06/30 12:28:21;;;;;;;;;0.25;0.25;;;;;;;;5066751;28;45581;-72
2023/06/30 12:30:46;;;;;;;;;1.00;1.00;;;;;;;;5100915;27;45494;-72
2023/06/30 12:33:18;;;;;;;;;0.00;0.00;;;;;;;;5086049;27;45284;-72
2023/06/30 12:35:44;;;;;;;;;0.50;0.50;;;;;;;;5058370;28;47348;-72
2023/06/30 12:38:09;;;;;;;;;0.50;0.50;;;;;;;;5073383;28;45375;-72
2023/06/30 12:40:35;;;;;;;;;6.25;1.00;;;;;;;;5074623;28;45329;-71
2023/06/30 12:43:00;;;;;;;;;0.00;0.00;;;;;;;;5085181;27;45527;-71
2023/06/30 12:45:26;;;;;;;;;1.00;1.00;;;;;;;;5096701;27;45854;-73
2023/06/30 12:47:51;;;;;;;;;0.00;0.00;;;;;;;;5091542;27;45253;-72
2023/06/30 12:50:17;;;;;;;;;0.00;0.00;;;;;;;;5079270;27;45482;-72
2023/06/30 12:52:42;;;;;;;;;0.00;0.00;;;;;;;;5099265;27;45331;-72
2023/06/30 12:55:09;;;;;;;;;0.00;0.00;;;;;;;;5082363;27;45501;-72
2023/06/30 12:57:34;;;;;;;;;0.00;0.00;;;;;;;;5071645;28;45677;-73
2023/06/30 12:59:59;;;;;;;;;1.00;1.00;;;;;;;;5076596;27;45647;-72
2023/06/30 13:02:24;;;;;;;;;0.00;0.00;;;;;;;;5072017;27;45416;-72
2023/06/30 13:04:51;;;;;;;;;1.50;1.00;;;;;;;;5094852;27;45596;-73
2023/06/30 13:07:16;;;;;;;;;0.00;0.00;;;;;;;;5068412;28;45529;-73
2023/06/30 13:09:41;;;;;;;;;0.00;0.00;;;;;;;;5082683;27;45438;-75
2023/06/30 13:12:09;;;;;;;;;0.00;0.00;;;;;;;;5080132;27;45524;-73
2023/06/30 13:14:35;;;;;;;;;0.75;0.00;;;;;;;;5090935;27;46685;-72
2023/06/30 13:17:00;;;;;;;;;0.00;0.00;;;;;;;;5103997;27;45351;-72
2023/06/30 13:19:26;;;;;;;;;0.00;0.00;;;;;;;;5084183;27;45328;-73
2023/06/30 13:21:51;;;;;;;;;1.75;1.00;;;;;;;;5094893;27;45326;-72
2023/06/30 13:24:16;;;;;;;;;0.50;0.00;;;;;;;;5063729;27;47651;-72
2023/06/30 13:26:42;;;;;;;;;0.00;0.00;;;;;;;;5089822;27;45401;-72
2023/06/30 13:29:07;;;;;;;;;0.25;0.25;;;;;;;;5071366;27;45428;-72
2023/06/30 13:31:32;;;;;;;;;0.50;0.50;;;;;;;;5083210;27;45486;-72
2023/06/30 13:33:57;;;;;;;;;0.50;0.00;;;;;;;;5094210;27;46171;-73
2023/06/30 13:36:22;;;;;;;;;0.00;0.00;;;;;;;;5082862;27;45421;-73
2023/06/30 13:38:48;;;;;;;;;0.00;0.00;;;;;;;;5089560;27;45466;-73
2023/06/30 13:41:13;;;;;;;;;0.00;0.00;;;;;;;;5090169;27;45393;-73
2023/06/30 13:43:39;;;;;;;;;0.50;0.50;;;;;;;;5081896;27;46173;-73
2023/06/30 13:46:05;;;;;;;;;0.00;0.00;;;;;;;;5094029;27;45423;-72
2023/06/30 13:48:31;;;;;;;;;0.00;0.00;;;;;;;;5065939;27;45765;-73
2023/06/30 13:50:56;;;;;;;;;0.00;0.00;;;;;;;;5088295;27;45380;-73
2023/06/30 13:53:21;;;;;;;;;1.00;1.00;;;;;;;;5077679;27;45357;-73
2023/06/30 13:55:46;;;;;;;;;0.00;0.00;;;;;;;;5077342;27;45460;-73
2023/06/30 13:58:11;;;;;;;;;0.50;0.50;;;;;;;;5094154;27;45606;-72
2023/06/30 14:00:37;;;;;;;;;0.00;0.00;;;;;;;;5084909;27;45446;-73
2023/06/30 14:03:02;;;;;;;;;1.00;0.00;;;;;;;;5102792;27;45469;-73
2023/06/30 14:05:27;;;;;;;;;0.00;0.00;;;;;;;;5091996;27;45383;-73
2023/06/30 14:07:53;;;;;;;;;0.50;0.50;;;;;;;;5074263;27;45496;-73
2023/06/30 14:10:18;;;;;;;;;0.25;0.25;;;;;;;;5060707;28;45273;-73
2023/06/30 14:12:43;;;;;;;;;0.00;0.00;;;;;;;;5085679;27;45525;-73
2023/06/30 14:15:09;;;;;;;;;0.00;0.00;;;;;;;;5084188;27;45273;-74
2023/06/30 14:17:34;;;;;;;;;1.00;1.00;;;;;;;;5076364;27;45786;-73
2023/06/30 14:19:59;;;;;;;;;0.00;0.00;;;;;;;;5089940;27;45362;-73
2023/06/30 14:22:24;;;;;;;;;0.00;0.00;;;;;;;;5089671;27;47945;-74
2023/06/30 14:24:49;;;;;;;;;0.00;0.00;;;;;;;;5101723;27;45316;-73
2023/06/30 14:27:15;;;;;;;;;0.00;0.00;;;;;;;;5093544;27;46728;-74
2023/06/30 14:29:42;;;;;;;;;0.00;0.00;;;;;;;;5066714;28;45415;-74
2023/06/30 14:32:08;;;;;;;;;0.25;0.00;;;;;;;;5082902;27;47074;-74
2023/06/30 14:34:33;;;;;;;;;0.00;0.00;;;;;;;;5084331;27;45417;-73
2023/06/30 14:36:58;;;;;;;;;0.00;0.00;;;;;;;;5087021;27;45487;-73